createdAt,value
2022-10-05T00:00:49.866Z,2.50
2022-10-05T00:03:16.553Z,1.85
2022-10-05T00:05:45.707Z,2.03
2022-10-05T00:08:18.440Z,2.33
2022-10-05T00:10:46.448Z,2.63
2022-10-05T00:13:16.114Z,2.80
2022-10-05T00:15:44.045Z,2.47
2022-10-05T00:18:20.285Z,2.72
2022-10-05T00:20:48.080Z,2.40
2022-10-05T00:23:24.907Z,2.78
2022-10-05T00:25:51.824Z,3.42
2022-10-05T00:28:25.524Z,2.58
2022-10-05T00:30:55.955Z,2.40
2022-10-05T00:33:22.628Z,2.80
2022-10-05T00:35:49.511Z,2.70
2022-10-05T00:38:15.992Z,2.60
2022-10-05T00:40:51.230Z,2.35
2022-10-05T00:43:37.624Z,2.53
2022-10-05T00:46:18.531Z,3.03
2022-10-05T00:49:09.964Z,2.50
2022-10-05T00:51:39.048Z,3.53
2022-10-05T00:54:24.397Z,3.80
2022-10-05T00:57:08.956Z,3.17
2022-10-05T01:00:02.526Z,3.60
2022-10-05T01:02:36.510Z,3.78
2022-10-05T01:10:49.023Z,3.42
2022-10-05T01:13:32.281Z,3.13
2022-10-05T01:16:15.333Z,3.33
2022-10-05T01:19:20.171Z,3.00
2022-10-05T01:21:57.052Z,3.70
2022-10-05T01:24:50.411Z,3.75
2022-10-05T01:28:30.928Z,3.13
2022-10-05T01:31:12.239Z,3.35
2022-10-05T01:34:01.943Z,3.28
2022-10-05T01:36:46.202Z,2.80
2022-10-05T01:40:01.552Z,3.35
2022-10-05T01:42:37.620Z,2.50
2022-10-05T01:45:26.072Z,2.17
2022-10-05T01:48:08.768Z,3.05
2022-10-05T01:50:53.845Z,2.63
2022-10-05T01:53:57.135Z,2.80
2022-10-05T01:56:43.634Z,3.10
2022-10-05T01:59:23.449Z,2.97
2022-10-05T02:02:00.250Z,2.70
2022-10-05T02:07:33.309Z,2.97
2022-10-05T02:10:05.497Z,3.00
2022-10-05T02:12:37.345Z,3.30
2022-10-05T02:15:14.779Z,2.65
2022-10-05T02:17:50.818Z,3.30
2022-10-05T02:20:23.979Z,3.53
2022-10-05T02:22:54.501Z,2.97
2022-10-05T02:25:30.459Z,2.83
2022-10-05T02:28:03.810Z,3.75
2022-10-05T02:30:37.868Z,2.60
2022-10-05T02:33:10.733Z,2.80
2022-10-05T02:35:37.415Z,2.90
2022-10-05T02:38:19.488Z,2.47
2022-10-05T02:41:19.407Z,2.83
2022-10-05T02:44:02.412Z,3.15
2022-10-05T02:46:38.784Z,2.92
2022-10-05T02:49:14.230Z,2.75
2022-10-05T02:51:56.554Z,2.95
2022-10-05T02:54:33.213Z,2.80
2022-10-05T02:57:07.953Z,3.47
2022-10-05T02:59:40.298Z,4.97
2022-10-05T03:02:18.746Z,2.92
2022-10-05T03:04:54.634Z,2.35
2022-10-05T03:07:28.154Z,3.03
2022-10-05T03:10:11.952Z,2.97
2022-10-05T03:12:52.727Z,2.72
2022-10-05T03:15:27.698Z,2.55
2022-10-05T03:18:22.391Z,2.53
2022-10-05T03:20:51.956Z,2.55
2022-10-05T03:23:41.179Z,3.15
2022-10-05T03:26:40.684Z,3.00
2022-10-05T03:29:20.893Z,2.67
2022-10-05T03:32:05.440Z,2.90
2022-10-05T03:34:48.807Z,2.88
2022-10-05T03:37:56.949Z,2.47
2022-10-05T03:40:50.526Z,2.25
2022-10-05T03:43:46.223Z,2.35
2022-10-05T03:46:46.263Z,2.25
2022-10-05T03:49:31.944Z,3.28
2022-10-05T03:52:07.622Z,2.53
2022-10-05T03:54:41.068Z,2.50
2022-10-05T03:57:14.784Z,2.25
2022-10-05T04:00:00.456Z,2.83
2022-10-05T04:02:33.598Z,2.28
2022-10-05T04:05:09.176Z,1.90
2022-10-05T04:07:52.015Z,2.80
2022-10-05T04:10:33.551Z,2.08
2022-10-05T04:13:11.307Z,2.00
2022-10-05T04:15:49.414Z,2.28
2022-10-05T04:18:28.828Z,1.90
2022-10-05T04:21:01.224Z,2.45
2022-10-05T04:23:39.923Z,2.28
2022-10-05T04:26:40.191Z,2.35
2022-10-05T04:29:25.507Z,1.70
2022-10-05T04:32:26.532Z,2.00
2022-10-05T04:35:00.460Z,1.80
2022-10-05T04:37:54.538Z,1.77
2022-10-05T04:40:36.187Z,1.67
2022-10-05T04:43:28.687Z,1.40
2022-10-05T04:46:01.307Z,2.25
2022-10-05T04:48:39.395Z,1.48
2022-10-05T04:54:22.886Z,2.35
2022-10-05T04:56:55.029Z,1.77
2022-10-05T04:59:47.889Z,1.85
2022-10-05T05:02:43.411Z,2.15
2022-10-05T05:05:27.508Z,2.80
2022-10-05T05:08:04.140Z,1.70
2022-10-05T05:10:40.762Z,1.80
2022-10-05T05:13:45.352Z,1.97
2022-10-05T05:16:25.327Z,2.00
2022-10-05T05:18:52.002Z,1.33
2022-10-05T05:21:43.102Z,1.55
2022-10-05T05:24:21.150Z,1.90
2022-10-05T05:27:06.076Z,1.80
2022-10-05T05:29:57.919Z,1.75
2022-10-05T05:33:01.037Z,1.33
2022-10-05T05:35:34.198Z,2.17
2022-10-05T05:38:15.543Z,1.85
2022-10-05T05:41:10.277Z,1.52
2022-10-05T05:44:03.812Z,1.38
2022-10-05T05:47:02.441Z,2.10
2022-10-05T05:49:43.298Z,1.60
2022-10-05T05:52:18.218Z,1.83
2022-10-05T05:54:52.226Z,1.85
2022-10-05T05:57:25.403Z,1.60
2022-10-05T05:59:55.944Z,1.88
2022-10-05T06:02:29.214Z,2.22
2022-10-05T06:05:02.690Z,2.15
2022-10-05T06:07:31.200Z,1.30
2022-10-05T06:10:29.341Z,1.45
2022-10-05T06:13:17.914Z,1.50
2022-10-05T06:15:52.067Z,1.17
2022-10-05T06:18:21.684Z,1.08
2022-10-05T06:20:54.561Z,1.42
2022-10-05T06:23:31.507Z,0.88
2022-10-05T06:26:27.281Z,1.02
2022-10-05T06:29:01.947Z,1.20
2022-10-05T06:31:56.478Z,1.10
2022-10-05T06:34:48.262Z,2.25
2022-10-05T06:37:52.552Z,1.17
2022-10-05T06:40:47.645Z,1.20
2022-10-05T06:43:35.583Z,0.95
2022-10-05T06:46:31.642Z,0.90
2022-10-05T06:49:16.182Z,1.25
2022-10-05T06:52:23.115Z,0.85
2022-10-05T06:55:13.206Z,1.00
2022-10-05T06:57:59.664Z,0.90
2022-10-05T07:00:39.174Z,0.70
2022-10-05T07:03:43.031Z,0.85
2022-10-05T07:06:16.980Z,0.85
2022-10-05T07:09:07.093Z,0.95
2022-10-05T07:11:57.530Z,0.65
2022-10-05T07:15:10.768Z,1.00
2022-10-05T07:18:23.081Z,0.60
2022-10-05T07:21:09.655Z,0.52
2022-10-05T07:23:51.112Z,0.82
2022-10-05T07:26:45.578Z,1.08
2022-10-05T07:29:22.087Z,0.60
2022-10-05T07:32:22.358Z,0.65
2022-10-05T07:35:09.690Z,0.68
2022-10-05T07:37:52.842Z,0.52
2022-10-05T07:40:32.064Z,0.70
2022-10-05T07:43:13.242Z,1.05
2022-10-05T07:46:05.894Z,0.50
2022-10-05T07:48:51.066Z,0.90
2022-10-05T07:51:36.248Z,0.60
2022-10-05T07:54:12.290Z,0.65
2022-10-05T07:56:49.287Z,0.60
2022-10-05T07:59:34.172Z,0.40
2022-10-05T08:02:12.326Z,0.60
2022-10-05T08:05:09.347Z,0.65
2022-10-05T08:07:37.260Z,0.73
2022-10-05T08:10:18.631Z,0.50
2022-10-05T08:13:03.805Z,0.50
2022-10-05T08:15:55.298Z,0.60
2022-10-05T08:18:53.924Z,0.40
2022-10-05T08:21:27.536Z,0.55
2022-10-05T08:24:14.192Z,0.52
2022-10-05T08:27:20.077Z,0.60
2022-10-05T08:29:58.624Z,0.60
2022-10-05T08:32:29.786Z,0.30
2022-10-05T08:35:24.514Z,0.47
2022-10-05T08:37:51.496Z,0.60
2022-10-05T08:40:45.622Z,0.40
2022-10-05T08:43:30.631Z,0.30
2022-10-05T08:46:18.422Z,0.60
2022-10-05T08:49:09.779Z,0.40
2022-10-05T08:52:28.971Z,0.38
2022-10-05T08:55:10.824Z,0.32
2022-10-05T08:58:01.448Z,0.55
2022-10-05T09:01:15.620Z,0.50
2022-10-05T09:04:15.364Z,0.60
2022-10-05T09:07:06.781Z,0.57
2022-10-05T09:09:47.002Z,0.30
2022-10-05T09:12:51.333Z,0.50
2022-10-05T09:15:39.793Z,0.30
2022-10-05T09:18:31.459Z,0.40
2022-10-05T09:21:10.773Z,0.40
2022-10-05T09:23:42.342Z,0.40
2022-10-05T09:26:42.325Z,0.55
2022-10-05T09:29:27.365Z,0.50
2022-10-05T09:32:16.372Z,0.63
2022-10-05T09:35:01.254Z,0.47
2022-10-05T09:37:36.558Z,0.95
2022-10-05T09:40:30.649Z,0.40
2022-10-05T09:43:44.669Z,0.47
2022-10-05T09:46:32.105Z,0.60
2022-10-05T09:49:01.382Z,0.50
2022-10-05T09:52:18.649Z,0.40
2022-10-05T09:54:54.705Z,0.45
2022-10-05T09:57:30.587Z,0.40
2022-10-05T10:00:15.862Z,0.77
2022-10-05T10:03:03.625Z,0.47
2022-10-05T10:08:29.319Z,0.70
2022-10-05T10:11:16.859Z,0.20
2022-10-05T10:13:58.470Z,0.43
2022-10-05T10:17:06.909Z,0.50
2022-10-05T10:19:54.894Z,0.70
2022-10-05T10:22:42.963Z,0.28
2022-10-05T10:25:46.921Z,1.23
2022-10-05T10:28:41.439Z,0.40
2022-10-05T10:31:35.432Z,0.50
2022-10-05T10:34:29.791Z,0.30
2022-10-05T10:37:31.828Z,0.47
2022-10-05T10:40:35.637Z,0.63
2022-10-05T10:43:26.647Z,0.30
2022-10-05T10:46:20.602Z,0.30
2022-10-05T10:48:56.681Z,0.50
2022-10-05T10:51:54.277Z,0.30
2022-10-05T10:54:56.371Z,0.40
2022-10-05T10:57:36.209Z,0.60
2022-10-05T11:00:22.917Z,0.30
2022-10-05T11:03:29.239Z,0.60
2022-10-05T11:06:19.755Z,0.50
2022-10-05T11:09:27.589Z,0.20
2022-10-05T11:12:44.739Z,0.47
2022-10-05T11:15:50.648Z,0.50
2022-10-05T11:18:30.110Z,0.38
2022-10-05T11:21:20.585Z,0.60
2022-10-05T11:24:14.636Z,0.47
2022-10-05T11:27:16.033Z,0.60
2022-10-05T11:30:19.707Z,0.80
2022-10-05T11:33:16.207Z,0.75
2022-10-05T11:35:57.867Z,0.35
2022-10-05T11:38:27.337Z,0.30
2022-10-05T11:41:06.244Z,0.47
2022-10-05T11:43:38.548Z,0.50
2022-10-05T11:46:29.882Z,0.40
2022-10-05T11:49:09.301Z,0.50
2022-10-05T11:51:56.465Z,0.75
2022-10-05T11:55:15.917Z,0.45
2022-10-05T11:57:54.528Z,0.40
2022-10-05T12:00:24.159Z,0.63
2022-10-05T12:03:12.458Z,0.28
2022-10-05T12:05:41.788Z,0.40
2022-10-05T12:08:28.563Z,0.57
2022-10-05T12:11:01.056Z,0.47
2022-10-05T12:13:27.554Z,0.40
2022-10-05T12:16:08.950Z,0.47
2022-10-05T12:18:35.496Z,0.50
2022-10-05T12:21:10.594Z,0.40
2022-10-05T12:23:50.117Z,1.08
2022-10-05T12:26:24.362Z,0.50
2022-10-05T12:28:57.606Z,0.45
2022-10-05T12:31:50.317Z,0.43
2022-10-05T12:34:29.093Z,0.40
2022-10-05T12:37:04.184Z,0.30
2022-10-05T12:39:50.932Z,0.35
2022-10-05T12:42:36.945Z,0.45
2022-10-05T12:45:50.150Z,0.40
2022-10-05T12:48:39.936Z,0.40
2022-10-05T12:51:28.457Z,0.40
2022-10-05T12:54:01.629Z,0.30
2022-10-05T12:56:35.964Z,0.60
2022-10-05T12:59:29.402Z,0.40
2022-10-05T13:02:25.258Z,0.30
2022-10-05T13:05:02.092Z,0.90
2022-10-05T13:07:40.618Z,0.50
2022-10-05T13:10:15.885Z,0.50
2022-10-05T13:13:10.353Z,0.60
2022-10-05T13:16:11.409Z,0.50
2022-10-05T13:18:52.124Z,0.40
2022-10-05T13:21:33.744Z,0.50
2022-10-05T13:24:20.662Z,0.40
2022-10-05T13:26:55.088Z,0.55
2022-10-05T13:29:40.030Z,0.40
2022-10-05T13:32:19.919Z,0.30
2022-10-05T13:34:52.660Z,0.43
2022-10-05T13:37:33.833Z,0.40
2022-10-05T13:40:15.035Z,0.35
2022-10-05T13:43:01.370Z,0.20
2022-10-05T13:45:57.411Z,0.30
2022-10-05T13:49:01.594Z,0.40
2022-10-05T13:51:38.975Z,0.55
2022-10-05T13:54:10.947Z,0.40
2022-10-05T13:56:45.550Z,0.28
2022-10-05T13:59:35.938Z,0.47
2022-10-05T14:02:08.671Z,0.43
2022-10-05T14:04:59.992Z,0.38
2022-10-05T14:07:49.711Z,0.40
2022-10-05T14:10:36.525Z,0.70
2022-10-05T14:13:19.755Z,0.70
2022-10-05T14:16:03.296Z,0.40
2022-10-05T14:18:31.434Z,0.50
2022-10-05T14:21:01.274Z,0.60
2022-10-05T14:23:27.888Z,0.30
2022-10-05T14:25:54.464Z,0.35
2022-10-05T14:28:35.516Z,0.43
2022-10-05T14:31:13.382Z,0.40
2022-10-05T14:33:40.703Z,0.47
2022-10-05T14:36:33.739Z,0.55
2022-10-05T14:39:01.369Z,0.45
2022-10-05T14:41:28.834Z,0.70
2022-10-05T14:43:55.282Z,0.50
2022-10-05T14:46:29.095Z,0.50
2022-10-05T14:49:12.648Z,0.30
2022-10-05T14:51:39.812Z,0.65
2022-10-05T14:54:25.291Z,0.50
2022-10-05T14:57:05.318Z,0.63
2022-10-05T14:59:40.504Z,0.60
2022-10-05T15:02:25.516Z,0.57
2022-10-05T15:05:02.271Z,0.30
2022-10-05T15:07:36.081Z,0.60
2022-10-05T15:10:33.259Z,0.52
2022-10-05T15:13:15.115Z,0.43
2022-10-05T15:15:54.896Z,0.50
2022-10-05T15:18:39.829Z,0.57
2022-10-05T15:21:32.781Z,0.80
2022-10-05T15:24:08.719Z,0.60
2022-10-05T15:26:54.648Z,1.10
2022-10-05T15:29:33.185Z,1.17
2022-10-05T15:32:06.188Z,0.60
2022-10-05T15:34:35.142Z,0.70
2022-10-05T15:37:20.075Z,0.50
2022-10-05T15:39:56.131Z,0.95
2022-10-05T15:42:34.605Z,0.90
2022-10-05T15:45:18.176Z,0.70
2022-10-05T15:47:51.173Z,0.60
2022-10-05T15:50:20.214Z,1.13
2022-10-05T15:52:53.873Z,0.65
2022-10-05T15:55:58.492Z,0.60
2022-10-05T15:58:43.798Z,0.50
2022-10-05T16:01:11.891Z,0.60
2022-10-05T16:03:44.474Z,0.47
2022-10-05T16:06:19.946Z,0.60
2022-10-05T16:08:58.263Z,0.70
2022-10-05T16:11:42.629Z,0.55
2022-10-05T16:14:27.872Z,1.00
2022-10-05T16:17:02.280Z,0.57
2022-10-05T16:19:42.208Z,1.10
2022-10-05T16:22:25.196Z,0.50
2022-10-05T16:25:19.887Z,0.80
2022-10-05T16:28:22.389Z,0.88
2022-10-05T16:31:08.214Z,0.60
2022-10-05T16:33:47.185Z,0.85
2022-10-05T16:36:39.404Z,0.77
2022-10-05T16:39:43.595Z,0.80
2022-10-05T16:42:36.423Z,0.70
2022-10-05T16:45:45.655Z,0.77
2022-10-05T16:48:52.933Z,0.90
2022-10-05T16:51:33.791Z,0.90
2022-10-05T16:54:20.720Z,0.57
2022-10-05T16:56:53.797Z,0.60
2022-10-05T16:59:42.789Z,0.80
2022-10-05T17:02:24.801Z,0.90
2022-10-05T17:05:00.286Z,0.80
2022-10-05T17:07:29.582Z,1.40
2022-10-05T17:10:17.561Z,1.92
2022-10-05T17:13:09.111Z,2.15
2022-10-05T17:15:56.725Z,1.50
2022-10-05T17:18:48.721Z,1.90
2022-10-05T17:21:28.563Z,0.90
2022-10-05T17:24:13.518Z,1.30
2022-10-05T17:26:56.435Z,1.13
2022-10-05T17:29:22.829Z,1.40
2022-10-05T17:32:05.918Z,1.30
2022-10-05T17:34:34.140Z,1.80
2022-10-05T17:37:32.319Z,1.40
2022-10-05T17:39:58.862Z,1.40
2022-10-05T17:42:31.512Z,1.48
2022-10-05T17:44:59.951Z,1.50
2022-10-05T17:48:00.349Z,1.42
2022-10-05T17:50:47.807Z,1.30
2022-10-05T17:53:23.464Z,1.40
2022-10-05T17:56:03.000Z,1.08
2022-10-05T17:58:29.682Z,1.17
2022-10-05T18:00:58.927Z,1.10
2022-10-05T18:03:43.064Z,1.02
2022-10-05T18:06:36.319Z,1.27
2022-10-05T18:09:15.038Z,0.90
2022-10-05T18:11:44.063Z,1.10
2022-10-05T18:14:50.391Z,1.27
2022-10-05T18:17:43.082Z,1.73
2022-10-05T18:20:12.233Z,1.52
2022-10-05T18:22:39.057Z,1.75
2022-10-05T18:25:34.865Z,1.60
2022-10-05T18:28:09.999Z,1.25
2022-10-05T18:31:10.857Z,1.40
2022-10-05T18:33:49.626Z,1.40
2022-10-05T18:36:47.981Z,1.55
2022-10-05T18:39:49.918Z,1.20
2022-10-05T18:42:27.446Z,1.10
2022-10-05T18:45:24.314Z,1.27
2022-10-05T18:47:53.712Z,1.35
2022-10-05T18:50:40.908Z,1.40
2022-10-05T18:53:41.214Z,1.00
2022-10-05T18:56:30.268Z,1.10
2022-10-05T18:59:06.014Z,1.63
2022-10-05T19:02:10.535Z,1.45
2022-10-05T19:04:42.930Z,1.80
2022-10-05T19:07:23.845Z,1.50
2022-10-05T19:10:06.821Z,1.67
2022-10-05T19:12:55.164Z,1.33
2022-10-05T19:15:37.405Z,1.40
2022-10-05T19:18:19.207Z,1.60
2022-10-05T19:21:04.089Z,1.92
2022-10-05T19:24:10.022Z,1.83
2022-10-05T19:27:01.225Z,1.85
2022-10-05T19:29:44.752Z,1.73
2022-10-05T19:32:31.582Z,3.33
2022-10-05T19:35:09.849Z,3.00
2022-10-05T19:37:51.453Z,2.78
2022-10-05T19:40:23.542Z,1.80
2022-10-05T19:43:03.617Z,1.65
2022-10-05T19:45:35.862Z,1.77
2022-10-05T19:48:27.629Z,1.52
2022-10-05T19:50:58.957Z,1.63
2022-10-05T19:53:37.200Z,1.75
2022-10-05T19:56:16.985Z,1.63
2022-10-05T19:58:43.573Z,2.72
2022-10-05T20:01:10.335Z,2.70
2022-10-05T20:03:36.887Z,2.65
2022-10-05T20:06:08.188Z,2.65
2022-10-05T20:08:40.339Z,2.55
2022-10-05T20:11:20.914Z,1.88
2022-10-05T20:14:07.296Z,1.77
2022-10-05T20:16:34.856Z,1.90
2022-10-05T20:19:05.747Z,1.20
2022-10-05T20:21:50.166Z,1.83
2022-10-05T20:24:19.793Z,1.38
2022-10-05T20:26:51.889Z,1.25
2022-10-05T20:29:18.422Z,1.17
2022-10-05T20:31:44.950Z,1.55
2022-10-05T20:34:11.502Z,0.90
2022-10-05T20:36:38.079Z,1.13
2022-10-05T20:39:04.602Z,0.85
2022-10-05T20:41:31.333Z,0.95
2022-10-05T20:43:57.809Z,1.05
2022-10-05T20:46:24.335Z,1.08
2022-10-05T20:48:50.837Z,1.20
2022-10-05T20:51:17.374Z,1.67
2022-10-05T20:53:43.898Z,1.55
2022-10-05T20:56:10.348Z,1.50
2022-10-05T20:58:36.870Z,1.40
2022-10-05T21:01:04.054Z,1.17
2022-10-05T21:03:30.578Z,1.27
2022-10-05T21:05:57.137Z,1.08
2022-10-05T21:08:23.696Z,0.98
2022-10-05T21:10:50.177Z,0.90
2022-10-05T21:13:16.687Z,1.55
2022-10-05T21:15:43.133Z,1.00
2022-10-05T21:18:09.625Z,0.80
2022-10-05T21:20:36.125Z,1.08
2022-10-05T21:23:02.681Z,0.75
2022-10-05T21:25:29.183Z,1.10
2022-10-05T21:27:55.745Z,0.68
2022-10-05T21:30:22.241Z,0.93
2022-10-05T21:32:48.814Z,0.63
2022-10-05T21:35:15.440Z,0.60
2022-10-05T21:37:41.931Z,0.90
2022-10-05T21:40:08.930Z,0.88
2022-10-05T21:42:35.551Z,0.88
2022-10-05T21:45:02.058Z,0.50
2022-10-05T21:47:28.844Z,0.75
2022-10-05T21:49:55.338Z,0.70
2022-10-05T21:52:22.156Z,0.95
2022-10-05T21:54:49.027Z,0.60
2022-10-05T21:57:15.889Z,0.85
2022-10-05T21:59:43.271Z,0.75
2022-10-05T22:02:09.735Z,0.40
2022-10-05T22:04:36.284Z,1.08
2022-10-05T22:07:13.982Z,0.70
2022-10-05T22:09:40.560Z,0.77
2022-10-05T22:12:07.028Z,0.90
2022-10-05T22:14:33.561Z,1.42
2022-10-05T22:17:00.112Z,1.20
2022-10-05T22:19:26.774Z,1.58
2022-10-05T22:21:53.595Z,0.88
2022-10-05T22:24:20.137Z,1.45
2022-10-05T22:26:49.060Z,1.85
2022-10-05T22:29:17.561Z,0.90
2022-10-05T22:31:45.532Z,1.27
2022-10-05T22:34:12.078Z,0.95
2022-10-05T22:36:38.619Z,0.70
2022-10-05T22:39:05.123Z,0.57
2022-10-05T22:41:31.593Z,0.63
2022-10-05T22:43:58.232Z,0.60
2022-10-05T22:46:24.775Z,0.60
2022-10-05T22:48:51.417Z,0.60
2022-10-05T22:51:18.008Z,1.20
2022-10-05T22:54:02.932Z,0.77
2022-10-05T22:56:47.963Z,0.70
2022-10-05T22:59:33.237Z,0.57
2022-10-05T23:02:18.370Z,0.70
2022-10-05T23:05:04.424Z,0.82
2022-10-05T23:07:49.827Z,1.15
2022-10-05T23:10:34.992Z,4.75
2022-10-05T23:13:20.339Z,3.95
2022-10-05T23:16:16.904Z,4.15
2022-10-05T23:19:01.968Z,1.70
2022-10-05T23:21:49.780Z,1.63
2022-10-05T23:27:19.707Z,0.70
2022-10-05T23:30:06.820Z,0.70
2022-10-05T23:32:51.878Z,0.55
2022-10-05T23:35:37.228Z,0.70
2022-10-05T23:38:22.388Z,0.90
2022-10-05T23:41:08.052Z,0.50
2022-10-05T23:43:53.404Z,0.80
2022-10-05T23:46:38.627Z,0.70
2022-10-05T23:49:23.724Z,0.57
2022-10-05T23:52:09.001Z,0.60
2022-10-05T23:54:53.977Z,0.50
2022-10-05T23:57:38.841Z,0.57
